Ocean Scout — WDG2354 — position and weather

sailwx.info

Track history (hours):
 
Tides and Currents Weather Stations Pressure Air Temp Water Temp Dewpoint Dewpoint Depression Visibility Wind Speed Wind Dir Waves Ship Positions

Ocean Scout

Owner: Clean Seas, LLC, Carpinteria, CA. More information available from US FCC via Universal Licensing System and Coast Guard Vessel Documentation Center.

Last reported at 2016-Nov-30 21:33 UTC. Time now 2016-Dec-05 14:29 UTC.
Position N 34°19' W 119°30'.

Length 20 m; draft 2 m.

Type: Pollution control. MMSI: 367514780.

Date/timePositionNaut miles runAvg speedWind from/ knotsBaromVisibWave heightAir tempDewpointWater temp
2016-Nov-30 21:33N 34°19' W 119°30'9 1.7
2016-Nov-30 16:22N 34°23' W 119°40'1 1.6
2016-Nov-30 15:33N 34°21' W 119°39'  
2016-Nov-26 21:23N 34°23' W 119°42'910.1
2016-Nov-26 20:33N 34°24' W 119°52'8 8.4
2016-Nov-26 19:33N 34°26' W 120°02'9 7.3
2016-Nov-26 18:19N 34°27' W 120°13'4 4.5
2016-Nov-26 17:26N 34°28' W 120°17'0 0.0
2016-Nov-26 15:20N 34°28' W 120°17'0 0.0
2016-Nov-26 13:33N 34°28' W 120°17'0 0.0
2016-Nov-26 12:21N 34°28' W 120°17'0 0.0
2016-Nov-26 11:26N 34°28' W 120°17'0 0.0
2016-Nov-26 10:27N 34°28' W 120°17'0 0.0
2016-Nov-26 09:21N 34°28' W 120°17'0 0.0
2016-Nov-26 08:26N 34°28' W 120°17'0 0.0
2016-Nov-26 07:32N 34°28' W 120°17'0 0.0
2016-Nov-26 06:26N 34°28' W 120°17'0 0.0
2016-Nov-26 05:26N 34°28' W 120°17'0 0.0
2016-Nov-26 04:23N 34°28' W 120°17'0 0.0
2016-Nov-26 03:20N 34°28' W 120°17'0 0.0
2016-Nov-26 02:26N 34°28' W 120°17'0 0.0
2016-Nov-26 01:05N 34°28' W 120°17'0 0.0
2016-Nov-26 00:29N 34°28' W 120°17'0 0.0
2016-Nov-25 23:20N 34°28' W 120°17'0 0.0
2016-Nov-25 22:26N 34°28' W 120°17'0 0.0
2016-Nov-25 21:26N 34°28' W 120°17'0 0.0
2016-Nov-25 20:20N 34°28' W 120°17'0 0.0
2016-Nov-25 19:27N 34°28' W 120°17'0 0.0
2016-Nov-25 18:32N 34°28' W 120°17'0 0.0
2016-Nov-25 17:17N 34°28' W 120°17'0 0.0
2016-Nov-25 16:26N 34°28' W 120°17'0 0.0
2016-Nov-25 14:20N 34°28' W 120°17'0 0.0
2016-Nov-25 13:26N 34°28' W 120°17'0 0.0
2016-Nov-25 12:08N 34°28' W 120°17'0 0.0
2016-Nov-25 11:26N 34°28' W 120°17'0 0.0
2016-Nov-25 10:26N 34°28' W 120°17'0 0.0
2016-Nov-25 08:32N 34°28' W 120°17'0 0.0
2016-Nov-25 07:26N 34°28' W 120°17'0 0.0
2016-Nov-25 06:32N 34°28' W 120°17'0 0.0
2016-Nov-25 05:20N 34°28' W 120°17'0 0.0
2016-Nov-25 04:20N 34°28' W 120°17'0 0.0
2016-Nov-25 03:20N 34°28' W 120°17'0 0.0
2016-Nov-25 02:32N 34°28' W 120°17'0 0.0
2016-Nov-25 01:26N 34°28' W 120°17'0 0.0
2016-Nov-25 00:32N 34°28' W 120°17'0 0.0
2016-Nov-24 23:20N 34°28' W 120°17'0 0.0
2016-Nov-24 22:17N 34°28' W 120°17'0 0.0
2016-Nov-24 21:29N 34°28' W 120°17'0 0.0
2016-Nov-24 18:32N 34°28' W 120°17'0 0.0
2016-Nov-24 17:32N 34°28' W 120°17'1512.4
2016-Nov-24 16:20N 34°23' W 120°00'15 0.4
2016-Nov-23 03:10N 34°24' W 119°41'0 0.0
2016-Nov-23 02:25N 34°24' W 119°41'11 1.0
2016-Nov-22 16:03N 34°19' W 119°30'  
Track history (hours):
 
Tides and Currents Weather Stations Pressure Air Temp Water Temp Dewpoint Dewpoint Depression Visibility Wind Speed Wind Dir Waves Ship Positions

Ocean Scout

Owner: Clean Seas, LLC, Carpinteria, CA. More information available from US FCC via Universal Licensing System and Coast Guard Vessel Documentation Center.

Last reported at 2016-Nov-30 21:33 UTC. Time now 2016-Dec-05 14:29 UTC.
Position N 34°19' W 119°30'.

Length 20 m; draft 2 m.

Type: Pollution control. MMSI: 367514780.

Date/timePositionNaut miles runAvg speedWind from/ knotsBaromVisibWave heightAir tempDewpointWater temp
2016-Nov-30 21:33N 34°19' W 119°30'9 1.7
2016-Nov-30 16:22N 34°23' W 119°40'1 1.6
2016-Nov-30 15:33N 34°21' W 119°39'  
2016-Nov-26 21:23N 34°23' W 119°42'910.1
2016-Nov-26 20:33N 34°24' W 119°52'8 8.4
2016-Nov-26 19:33N 34°26' W 120°02'9 7.3
2016-Nov-26 18:19N 34°27' W 120°13'4 4.5
2016-Nov-26 17:26N 34°28' W 120°17'0 0.0
2016-Nov-26 15:20N 34°28' W 120°17'0 0.0
2016-Nov-26 13:33N 34°28' W 120°17'0 0.0
2016-Nov-26 12:21N 34°28' W 120°17'0 0.0
2016-Nov-26 11:26N 34°28' W 120°17'0 0.0
2016-Nov-26 10:27N 34°28' W 120°17'0 0.0
2016-Nov-26 09:21N 34°28' W 120°17'0 0.0
2016-Nov-26 08:26N 34°28' W 120°17'0 0.0
2016-Nov-26 07:32N 34°28' W 120°17'0 0.0
2016-Nov-26 06:26N 34°28' W 120°17'0 0.0
2016-Nov-26 05:26N 34°28' W 120°17'0 0.0
2016-Nov-26 04:23N 34°28' W 120°17'0 0.0
2016-Nov-26 03:20N 34°28' W 120°17'0 0.0
2016-Nov-26 02:26N 34°28' W 120°17'0 0.0
2016-Nov-26 01:05N 34°28' W 120°17'0 0.0
2016-Nov-26 00:29N 34°28' W 120°17'0 0.0
2016-Nov-25 23:20N 34°28' W 120°17'0 0.0
2016-Nov-25 22:26N 34°28' W 120°17'0 0.0
2016-Nov-25 21:26N 34°28' W 120°17'0 0.0
2016-Nov-25 20:20N 34°28' W 120°17'0 0.0
2016-Nov-25 19:27N 34°28' W 120°17'0 0.0
2016-Nov-25 18:32N 34°28' W 120°17'0 0.0
2016-Nov-25 17:17N 34°28' W 120°17'0 0.0
2016-Nov-25 16:26N 34°28' W 120°17'0 0.0
2016-Nov-25 14:20N 34°28' W 120°17'0 0.0
2016-Nov-25 13:26N 34°28' W 120°17'0 0.0
2016-Nov-25 12:08N 34°28' W 120°17'0 0.0
2016-Nov-25 11:26N 34°28' W 120°17'0 0.0
2016-Nov-25 10:26N 34°28' W 120°17'0 0.0
2016-Nov-25 08:32N 34°28' W 120°17'0 0.0
2016-Nov-25 07:26N 34°28' W 120°17'0 0.0
2016-Nov-25 06:32N 34°28' W 120°17'0 0.0
2016-Nov-25 05:20N 34°28' W 120°17'0 0.0
2016-Nov-25 04:20N 34°28' W 120°17'0 0.0
2016-Nov-25 03:20N 34°28' W 120°17'0 0.0
2016-Nov-25 02:32N 34°28' W 120°17'0 0.0
2016-Nov-25 01:26N 34°28' W 120°17'0 0.0
2016-Nov-25 00:32N 34°28' W 120°17'0 0.0
2016-Nov-24 23:20N 34°28' W 120°17'0 0.0
2016-Nov-24 22:17N 34°28' W 120°17'0 0.0
2016-Nov-24 21:29N 34°28' W 120°17'0 0.0
2016-Nov-24 18:32N 34°28' W 120°17'0 0.0
2016-Nov-24 17:32N 34°28' W 120°17'1512.4
2016-Nov-24 16:20N 34°23' W 120°00'15 0.4
2016-Nov-23 03:10N 34°24' W 119°41'0 0.0
2016-Nov-23 02:25N 34°24' W 119°41'11 1.0
2016-Nov-22 16:03N 34°19' W 119°30'  

Dump ship's entire track history